createdAt,value
2024-03-05T04:52:23.032Z,0.47
2024-03-05T04:54:50.954Z,0.58
2024-03-05T04:57:18.483Z,0.58
2024-03-05T04:59:47.416Z,0.59
2024-03-05T05:02:16.192Z,0.60
2024-03-05T05:04:44.148Z,0.58
2024-03-05T05:07:12.106Z,0.57
2024-03-05T05:09:41.079Z,0.57
2024-03-05T05:12:08.668Z,0.57
2024-03-05T05:14:38.980Z,0.57
2024-03-05T05:17:06.927Z,0.57
2024-03-05T05:19:34.654Z,0.56
2024-03-05T05:22:02.439Z,0.56
2024-03-05T05:24:30.233Z,0.56
2024-03-05T05:26:57.849Z,0.56
2024-03-05T05:29:36.253Z,0.56
2024-03-05T05:32:08.955Z,0.56
2024-03-05T05:34:36.966Z,0.57
2024-03-05T05:37:06.165Z,0.57
2024-03-05T05:39:34.120Z,0.58
2024-03-05T05:42:01.654Z,0.59
2024-03-05T05:44:30.782Z,0.61
2024-03-05T05:46:58.496Z,0.64
2024-03-05T05:49:26.175Z,0.65
2024-03-05T05:51:54.538Z,0.67
2024-03-05T05:54:23.274Z,0.69
2024-03-05T05:56:51.038Z,0.70
2024-03-05T05:59:20.088Z,0.71
2024-03-05T06:01:47.782Z,0.73
2024-03-05T06:04:16.906Z,0.76
2024-03-05T06:06:44.741Z,0.78
2024-03-05T06:09:12.292Z,0.81
2024-03-05T06:11:40.103Z,0.84
2024-03-05T06:14:08.250Z,0.88
2024-03-05T06:16:36.283Z,0.93
2024-03-05T06:19:03.902Z,0.97
2024-03-05T06:21:31.475Z,1.02
2024-03-05T06:23:58.943Z,1.08
2024-03-05T06:26:26.554Z,1.14
2024-03-05T06:28:54.604Z,1.20
2024-03-05T06:31:22.778Z,1.25
2024-03-05T06:33:51.083Z,1.30
2024-03-05T06:36:20.660Z,1.35
2024-03-05T06:38:48.385Z,1.41
2024-03-05T06:41:16.384Z,1.45
2024-03-05T06:43:44.188Z,1.50
2024-03-05T06:46:14.788Z,1.57
2024-03-05T06:48:49.346Z,1.64
2024-03-05T06:51:33.142Z,1.70
2024-03-05T06:54:19.469Z,1.75
2024-03-05T06:56:47.227Z,1.80
2024-03-05T06:59:15.163Z,1.85
2024-03-05T07:01:43.003Z,1.90
2024-03-05T07:04:10.639Z,1.98
2024-03-05T07:06:38.222Z,2.06
2024-03-05T07:09:05.835Z,2.13
2024-03-05T07:11:34.341Z,2.19
2024-03-05T07:14:01.945Z,2.27
2024-03-05T07:16:31.182Z,2.37
2024-03-05T07:18:58.838Z,2.43
2024-03-05T07:21:26.875Z,2.50
2024-03-05T07:23:55.766Z,2.57
2024-03-05T07:26:24.862Z,2.64
2024-03-05T07:28:53.805Z,2.72
2024-03-05T07:31:21.567Z,2.77
2024-03-05T07:33:52.898Z,2.83
2024-03-05T07:36:24.443Z,2.88
2024-03-05T07:38:52.190Z,2.94
2024-03-05T07:41:29.645Z,3.01
2024-03-05T07:44:02.568Z,3.08
2024-03-05T07:46:31.742Z,3.13
2024-03-05T07:49:00.109Z,3.19
2024-03-05T07:51:40.769Z,3.27
2024-03-05T07:54:12.935Z,3.35
2024-03-05T07:56:41.250Z,3.41
2024-03-05T07:59:09.924Z,3.47
2024-03-05T08:01:38.475Z,3.54
2024-03-05T08:04:07.414Z,3.62
2024-03-05T08:06:35.208Z,3.69
2024-03-05T08:09:05.080Z,3.77
2024-03-05T08:11:33.028Z,3.83
2024-03-05T08:14:00.729Z,3.90
2024-03-05T08:16:28.436Z,3.98
2024-03-05T08:18:55.926Z,4.06
2024-03-05T08:21:23.813Z,4.12
2024-03-05T08:23:55.057Z,4.20
2024-03-05T08:26:24.020Z,4.27
2024-03-05T08:28:51.788Z,4.35
2024-03-05T08:31:19.493Z,4.43
2024-03-05T08:33:47.166Z,4.50
2024-03-05T08:36:14.785Z,4.59
2024-03-05T08:38:42.315Z,4.67
2024-03-05T08:41:09.909Z,4.75
2024-03-05T08:43:37.715Z,4.83
2024-03-05T08:46:05.684Z,4.91
2024-03-05T08:48:33.301Z,5.01
2024-03-05T08:51:00.868Z,5.09
2024-03-05T08:53:30.179Z,5.13
2024-03-05T08:55:58.132Z,5.20
2024-03-05T08:58:25.996Z,5.28
2024-03-05T09:00:54.519Z,5.35
2024-03-05T09:03:22.709Z,5.40
2024-03-05T09:05:50.328Z,5.46
2024-03-05T09:08:18.170Z,5.51
2024-03-05T09:10:48.163Z,5.56
2024-03-05T09:13:15.948Z,5.60
2024-03-05T09:15:44.585Z,5.64
2024-03-05T09:18:15.873Z,5.68
2024-03-05T09:20:44.547Z,5.70
2024-03-05T09:23:12.564Z,5.74
2024-03-05T09:25:43.422Z,5.76
2024-03-05T09:28:12.093Z,5.78
2024-03-05T09:30:40.619Z,5.82
2024-03-05T09:33:11.637Z,5.86
2024-03-05T09:35:40.397Z,5.91
2024-03-05T09:38:08.734Z,5.98
2024-03-05T09:40:36.811Z,6.03
2024-03-05T09:43:05.742Z,6.06
2024-03-05T09:45:37.806Z,6.07
2024-03-05T09:48:06.516Z,6.09
2024-03-05T09:50:34.864Z,6.14
2024-03-05T09:53:02.803Z,6.19
2024-03-05T09:55:32.566Z,6.20
2024-03-05T09:58:00.895Z,6.23
2024-03-05T10:00:29.145Z,6.28
2024-03-05T10:02:56.785Z,6.35
2024-03-05T10:05:24.560Z,6.40
2024-03-05T10:07:52.436Z,6.46
2024-03-05T10:10:20.556Z,6.53
2024-03-05T10:12:48.277Z,6.59
2024-03-05T10:15:37.267Z,6.64
2024-03-05T10:18:05.012Z,6.70
2024-03-05T10:20:34.402Z,6.77
2024-03-05T10:23:04.036Z,6.84
2024-03-05T10:25:34.494Z,6.95
2024-03-05T10:28:03.536Z,7.05
2024-03-05T10:30:36.179Z,7.13
2024-03-05T10:33:05.049Z,7.19
2024-03-05T10:35:36.953Z,7.27
2024-03-05T10:38:10.955Z,7.34
2024-03-05T10:40:39.778Z,7.40
2024-03-05T10:43:08.999Z,7.41
2024-03-05T10:45:39.513Z,7.37
2024-03-05T10:48:12.267Z,7.34
2024-03-05T10:50:41.842Z,7.34
2024-03-05T10:53:10.380Z,7.36
2024-03-05T10:55:39.411Z,7.39
2024-03-05T10:58:12.748Z,7.42
2024-03-05T11:00:41.853Z,7.44
2024-03-05T11:03:11.352Z,7.47
2024-03-05T11:05:45.573Z,7.50
2024-03-05T11:08:16.549Z,7.51
2024-03-05T11:10:44.539Z,7.52
2024-03-05T11:13:12.365Z,7.55
2024-03-05T11:15:40.368Z,7.59
2024-03-05T11:18:28.722Z,7.66
2024-03-05T11:20:56.540Z,7.77
2024-03-05T11:23:36.757Z,7.84
2024-03-05T11:26:06.310Z,7.92
2024-03-05T11:28:37.261Z,7.98
2024-03-05T11:31:20.466Z,8.03
2024-03-05T11:34:10.174Z,8.08
2024-03-05T11:36:38.108Z,8.15
2024-03-05T11:39:21.033Z,8.17
2024-03-05T11:41:49.194Z,8.22
2024-03-05T11:44:32.483Z,8.31
2024-03-05T11:47:00.554Z,8.38
2024-03-05T11:49:28.309Z,8.46
2024-03-05T11:51:55.998Z,8.52
2024-03-05T11:54:25.277Z,8.53
2024-03-05T11:57:00.913Z,8.53
2024-03-05T11:59:38.791Z,8.53
2024-03-05T12:02:11.190Z,8.53
2024-03-05T12:04:43.237Z,8.57
2024-03-05T12:07:14.448Z,8.62
2024-03-05T12:09:42.168Z,8.63
2024-03-05T12:12:15.033Z,8.63
2024-03-05T12:14:56.455Z,8.64
2024-03-05T12:17:25.667Z,8.66
2024-03-05T12:20:06.171Z,8.67
2024-03-05T12:22:34.033Z,8.70
2024-03-05T12:25:01.685Z,8.68
2024-03-05T12:27:29.233Z,8.63
2024-03-05T12:29:57.277Z,8.61
2024-03-05T12:32:25.052Z,8.58
2024-03-05T12:34:52.826Z,8.52
2024-03-05T12:37:20.957Z,8.46
2024-03-05T12:40:01.451Z,8.45
2024-03-05T12:42:29.979Z,8.46
2024-03-05T12:45:09.860Z,8.49
2024-03-05T12:47:38.926Z,8.53
2024-03-05T12:50:10.758Z,8.55
2024-03-05T12:52:38.866Z,8.56
2024-03-05T12:55:11.215Z,8.56
2024-03-05T12:57:39.010Z,8.55
2024-03-05T13:00:11.948Z,8.56
2024-03-05T13:02:40.934Z,8.55
2024-03-05T13:05:09.917Z,8.54
2024-03-05T13:07:38.048Z,8.55
2024-03-05T13:10:11.943Z,8.56
2024-03-05T13:12:40.601Z,8.53
2024-03-05T13:15:09.281Z,8.51
2024-03-05T13:17:37.035Z,8.48
2024-03-05T13:20:05.604Z,8.45
2024-03-05T13:22:33.727Z,8.42
2024-03-05T13:25:01.694Z,8.42
2024-03-05T13:27:29.319Z,8.40
2024-03-05T13:30:05.628Z,8.37
2024-03-05T13:32:41.255Z,8.33
2024-03-05T13:35:09.581Z,8.30
2024-03-05T13:37:37.554Z,8.29
2024-03-05T13:40:06.311Z,8.27
2024-03-05T13:42:37.429Z,8.24
2024-03-05T13:45:11.325Z,8.22
2024-03-05T13:47:40.150Z,8.21
2024-03-05T13:50:12.002Z,8.20
2024-03-05T13:52:49.254Z,8.20
2024-03-05T13:55:17.485Z,8.18
2024-03-05T13:57:46.579Z,8.17
2024-03-05T14:00:21.497Z,8.15
2024-03-05T14:02:49.636Z,8.16
2024-03-05T14:07:45.767Z,8.19
2024-03-05T14:10:13.579Z,8.18
2024-03-05T14:12:41.694Z,8.15
2024-03-05T14:15:22.187Z,8.14
2024-03-05T14:17:51.554Z,8.13
2024-03-05T14:20:25.273Z,8.14
2024-03-05T14:22:55.228Z,8.14
2024-03-05T14:25:23.327Z,8.14
2024-03-05T14:27:51.310Z,8.13
2024-03-05T14:30:19.896Z,8.11
2024-03-05T14:32:48.021Z,8.07
2024-03-05T14:35:15.858Z,8.04
2024-03-05T14:37:44.522Z,8.01
2024-03-05T14:40:16.134Z,7.97
2024-03-05T14:42:45.408Z,7.95
2024-03-05T14:45:15.557Z,7.95
2024-03-05T14:47:50.973Z,7.95
2024-03-05T14:50:18.961Z,7.95
2024-03-05T14:52:46.667Z,7.94
2024-03-05T14:55:14.432Z,7.92
2024-03-05T14:57:42.910Z,7.90
2024-03-05T15:00:14.532Z,7.89
2024-03-05T15:02:43.243Z,7.86
2024-03-05T15:05:14.024Z,7.83
2024-03-05T15:07:42.292Z,7.81
2024-03-05T15:10:13.650Z,7.77
2024-03-05T15:12:43.732Z,7.75
2024-03-05T15:15:12.515Z,7.74
2024-03-05T15:17:40.314Z,7.73
2024-03-05T15:20:12.302Z,7.70
2024-03-05T15:22:43.632Z,7.69
2024-03-05T15:25:14.980Z,7.67
2024-03-05T15:27:45.717Z,7.66
2024-03-05T15:30:16.898Z,7.64
2024-03-05T15:32:48.919Z,7.61
2024-03-05T15:35:18.121Z,7.59
2024-03-05T15:37:46.416Z,7.58
2024-03-05T15:40:19.630Z,7.55
2024-03-05T15:42:51.248Z,7.53
2024-03-05T15:45:19.847Z,7.52
2024-03-05T15:47:47.884Z,7.52
2024-03-05T15:50:19.546Z,7.51
2024-03-05T15:52:51.472Z,7.49
2024-03-05T15:55:20.268Z,7.47
2024-03-05T15:58:04.241Z,7.45
2024-03-05T16:00:39.596Z,7.42
2024-03-05T16:03:14.007Z,7.40
2024-03-05T16:05:55.507Z,7.36
2024-03-05T16:08:31.471Z,7.32
2024-03-05T16:11:00.598Z,7.30
2024-03-05T16:13:30.839Z,7.28
2024-03-05T16:15:58.857Z,7.26
2024-03-05T16:18:27.940Z,7.25
2024-03-05T16:20:55.618Z,7.22
2024-03-05T16:23:23.359Z,7.21
2024-03-05T16:25:52.776Z,7.19
2024-03-05T16:28:21.923Z,7.18
2024-03-05T16:30:49.710Z,7.17
2024-03-05T16:33:17.427Z,7.16
2024-03-05T16:35:45.119Z,7.14
2024-03-05T16:38:15.717Z,7.12
2024-03-05T16:40:43.602Z,7.11
2024-03-05T16:43:13.137Z,7.09
2024-03-05T16:45:41.414Z,7.07
2024-03-05T16:48:10.865Z,7.07
2024-03-05T16:50:40.691Z,7.05
2024-03-05T16:53:10.536Z,7.03
2024-03-05T16:55:38.854Z,7.00
2024-03-05T16:58:12.532Z,6.99
2024-03-05T17:00:48.722Z,6.98
2024-03-05T17:03:18.570Z,6.98
2024-03-05T17:05:52.222Z,6.98
2024-03-05T17:08:24.997Z,6.97
2024-03-05T17:10:55.109Z,6.96
2024-03-05T17:13:24.534Z,6.95
2024-03-05T17:15:57.778Z,6.95
2024-03-05T17:18:28.825Z,6.93
2024-03-05T17:20:57.358Z,6.92
2024-03-05T17:23:26.828Z,6.89
2024-03-05T17:25:57.652Z,6.90
2024-03-05T17:28:28.138Z,6.90
2024-03-05T17:30:57.588Z,6.91
2024-03-05T17:33:25.957Z,6.90
2024-03-05T17:35:56.790Z,6.87
2024-03-05T17:38:27.354Z,6.85
2024-03-05T17:40:57.097Z,6.83
2024-03-05T17:43:25.181Z,6.80
2024-03-05T17:45:52.822Z,6.75
2024-03-05T17:48:20.663Z,6.70
2024-03-05T17:50:49.244Z,6.67
2024-03-05T17:53:16.944Z,6.65
2024-03-05T17:55:46.214Z,6.62
2024-03-05T17:58:14.051Z,6.60
2024-03-05T18:00:48.232Z,6.57
2024-03-05T18:03:16.226Z,6.55
2024-03-05T18:05:46.849Z,6.52
2024-03-05T18:08:16.782Z,6.48
2024-03-05T18:10:47.045Z,6.43
2024-03-05T18:13:17.028Z,6.40
2024-03-05T18:15:46.884Z,6.38
2024-03-05T18:18:15.723Z,6.35
2024-03-05T18:20:44.931Z,6.33
2024-03-05T18:23:13.324Z,6.32
2024-03-05T18:25:42.916Z,6.30
2024-03-05T18:28:10.944Z,6.28
2024-03-05T18:30:39.918Z,6.25
2024-03-05T18:33:09.466Z,6.24
2024-03-05T18:35:39.010Z,6.21
2024-03-05T18:38:20.036Z,6.19
2024-03-05T18:40:54.550Z,6.18
2024-03-05T18:43:22.897Z,6.16
2024-03-05T18:45:51.264Z,6.14
2024-03-05T18:48:19.183Z,6.12
2024-03-05T18:50:48.536Z,6.12
2024-03-05T18:53:17.526Z,6.10
2024-03-05T18:55:45.790Z,6.08
2024-03-05T18:58:13.750Z,6.06
2024-03-05T19:00:43.095Z,6.00
2024-03-05T19:03:10.932Z,5.97
2024-03-05T19:05:38.636Z,5.94
2024-03-05T19:08:07.781Z,5.93
2024-03-05T19:10:35.745Z,5.89
2024-03-05T19:13:03.585Z,5.88
2024-03-05T19:15:31.372Z,5.86
2024-03-05T19:17:59.121Z,5.84
2024-03-05T19:20:27.549Z,5.80
2024-03-05T19:22:55.429Z,5.76
2024-03-05T19:25:23.747Z,5.74
2024-03-05T19:27:52.214Z,5.74
2024-03-05T19:30:20.605Z,5.72
2024-03-05T19:32:48.728Z,5.70
2024-03-05T19:35:18.237Z,5.69
2024-03-05T19:37:48.436Z,5.69
2024-03-05T19:40:18.194Z,5.68
2024-03-05T19:42:48.335Z,5.67
2024-03-05T19:45:16.093Z,5.66
2024-03-05T19:47:43.817Z,5.64
2024-03-05T19:50:15.280Z,5.62
2024-03-05T19:52:43.015Z,5.62
2024-03-05T19:55:10.848Z,5.61
2024-03-05T19:57:38.407Z,5.59
2024-03-05T20:00:13.498Z,5.57
2024-03-05T20:02:41.333Z,5.54
2024-03-05T20:05:09.650Z,5.50
2024-03-05T20:07:37.468Z,5.46
2024-03-05T20:10:06.193Z,5.45
2024-03-05T20:12:34.761Z,5.44
2024-03-05T20:15:09.833Z,5.44
2024-03-05T20:17:39.215Z,5.46
2024-03-05T20:20:09.969Z,5.45
2024-03-05T20:22:39.435Z,5.45
2024-03-05T20:25:08.346Z,5.43
2024-03-05T20:27:36.104Z,5.41
2024-03-05T20:30:13.676Z,5.40
2024-03-05T20:32:45.904Z,5.38
2024-03-05T20:35:17.921Z,5.39
2024-03-05T20:37:47.773Z,5.39
2024-03-05T20:40:15.757Z,5.39
2024-03-05T20:42:44.435Z,5.38
2024-03-05T20:45:13.117Z,5.37
2024-03-05T20:47:41.361Z,5.36
2024-03-05T20:50:09.699Z,5.34
2024-03-05T20:52:37.518Z,5.31
2024-03-05T20:55:05.684Z,5.28
2024-03-05T20:57:37.655Z,5.23
2024-03-05T21:00:19.874Z,5.20
2024-03-05T21:02:49.767Z,5.19
2024-03-05T21:05:19.003Z,5.17
2024-03-05T21:07:46.750Z,5.16
2024-03-05T21:10:15.204Z,5.14
2024-03-05T21:12:42.872Z,5.13
2024-03-05T21:15:11.610Z,5.11
2024-03-05T21:17:40.446Z,5.10
2024-03-05T21:20:09.092Z,5.08
2024-03-05T21:22:38.722Z,5.04
2024-03-05T21:25:07.222Z,5.03
2024-03-05T21:27:36.251Z,5.02
2024-03-05T21:30:07.159Z,5.00
2024-03-05T21:32:34.810Z,4.98
2024-03-05T21:35:02.813Z,4.95
2024-03-05T21:37:30.586Z,4.92
2024-03-05T21:39:59.765Z,4.90
2024-03-05T21:42:27.270Z,4.88
2024-03-05T21:44:55.170Z,4.88
2024-03-05T21:47:22.756Z,4.87
2024-03-05T21:49:50.900Z,4.87
2024-03-05T21:52:19.358Z,4.84
2024-03-05T21:54:46.813Z,4.81
2024-03-05T21:57:14.414Z,4.76
2024-03-05T21:59:42.049Z,4.72
2024-03-05T22:02:09.697Z,4.71
2024-03-05T22:04:37.428Z,4.68
2024-03-05T22:07:05.434Z,4.65
2024-03-05T22:09:33.183Z,4.62
2024-03-05T22:12:03.944Z,4.61
2024-03-05T22:14:32.857Z,4.60
2024-03-05T22:17:00.454Z,4.57
2024-03-05T22:19:28.179Z,4.55
2024-03-05T22:21:55.845Z,4.54
2024-03-05T22:24:23.573Z,4.53
2024-03-05T22:26:51.183Z,4.50
2024-03-05T22:29:18.962Z,4.48
2024-03-05T22:31:46.546Z,4.45
2024-03-05T22:34:14.182Z,4.43
2024-03-05T22:36:41.817Z,4.43
2024-03-05T22:39:09.427Z,4.42
2024-03-05T22:41:37.136Z,4.41
2024-03-05T22:44:04.826Z,4.40
2024-03-05T22:46:32.417Z,4.39
2024-03-05T22:49:00.371Z,4.39
2024-03-05T22:51:28.045Z,4.38
2024-03-05T22:53:55.511Z,4.36
2024-03-05T22:56:23.018Z,4.34
2024-03-05T22:58:50.765Z,4.30
2024-03-05T23:01:18.310Z,4.29
2024-03-05T23:03:45.871Z,4.26
2024-03-05T23:06:18.710Z,4.25
2024-03-05T23:08:49.213Z,4.25
2024-03-05T23:11:16.882Z,4.24
2024-03-05T23:13:44.614Z,4.24
2024-03-05T23:16:12.168Z,4.21
2024-03-05T23:18:39.783Z,4.17
2024-03-05T23:21:10.886Z,4.13
2024-03-05T23:23:39.550Z,4.09
2024-03-05T23:26:07.769Z,4.06
2024-03-05T23:28:35.414Z,4.00
2024-03-05T23:31:02.925Z,3.97
2024-03-05T23:33:30.493Z,3.93
2024-03-05T23:35:58.071Z,3.90
2024-03-05T23:38:25.553Z,3.88
2024-03-05T23:40:55.704Z,3.87
2024-03-05T23:43:23.495Z,3.87
2024-03-05T23:45:51.250Z,3.87
2024-03-05T23:48:18.865Z,3.83
2024-03-05T23:50:46.591Z,3.81
2024-03-05T23:53:16.049Z,3.79
2024-03-05T23:55:44.417Z,3.76
2024-03-05T23:58:11.995Z,3.74
